createdAt,value
2022-12-01T00:00:54.859Z,27.67
2022-12-01T00:03:42.254Z,31.48
2022-12-01T00:06:31.243Z,25.15
2022-12-01T00:09:36.869Z,25.88
2022-12-01T00:12:24.116Z,24.80
2022-12-01T00:15:11.488Z,27.55
2022-12-01T00:17:59.075Z,24.58
2022-12-01T00:20:55.833Z,25.63
2022-12-01T00:23:47.633Z,22.83
2022-12-01T00:26:34.786Z,24.67
2022-12-01T00:29:22.065Z,25.92
2022-12-01T00:32:10.122Z,30.65
2022-12-01T00:34:57.416Z,28.88
2022-12-01T00:37:44.531Z,25.13
2022-12-01T00:40:31.582Z,25.10
2022-12-01T00:43:18.665Z,27.20
2022-12-01T00:46:05.909Z,28.48
2022-12-01T00:48:53.073Z,25.05
2022-12-01T00:51:40.150Z,24.48
2022-12-01T00:54:27.220Z,25.50
2022-12-01T00:57:14.396Z,26.45
2022-12-01T01:00:01.830Z,28.23
2022-12-01T01:02:49.153Z,30.50
2022-12-01T01:05:41.494Z,28.40
2022-12-01T01:08:28.563Z,24.52
2022-12-01T01:11:15.647Z,29.08
2022-12-01T01:14:03.161Z,26.67
2022-12-01T01:16:50.799Z,27.50
2022-12-01T01:19:37.970Z,26.35
2022-12-01T01:22:25.220Z,27.50
2022-12-01T01:25:14.222Z,26.88
2022-12-01T01:28:01.476Z,27.13
2022-12-01T01:30:48.731Z,28.85
2022-12-01T01:33:36.394Z,28.83
2022-12-01T01:36:24.553Z,27.58
2022-12-01T01:39:11.825Z,27.55
2022-12-01T01:41:58.923Z,29.27
2022-12-01T01:44:54.829Z,28.88
2022-12-01T01:47:42.198Z,30.15
2022-12-01T01:50:29.319Z,28.85
2022-12-01T01:53:16.614Z,30.88
2022-12-01T01:56:04.923Z,27.60
2022-12-01T01:58:53.185Z,30.55
2022-12-01T02:01:40.332Z,32.60
2022-12-01T02:04:28.772Z,27.85
2022-12-01T02:07:19.278Z,30.98
2022-12-01T02:10:12.966Z,30.30
2022-12-01T02:13:19.348Z,28.83
2022-12-01T02:16:37.397Z,34.88
2022-12-01T02:19:43.084Z,30.35
2022-12-01T02:22:53.947Z,31.75
2022-12-01T02:26:03.072Z,35.60
2022-12-01T02:28:50.348Z,33.80
2022-12-01T02:31:52.282Z,32.85
2022-12-01T02:34:52.418Z,32.83
2022-12-01T02:38:08.005Z,31.98
2022-12-01T02:41:10.707Z,36.75
2022-12-01T02:44:14.227Z,35.20
2022-12-01T02:47:14.739Z,31.33
2022-12-01T02:50:03.529Z,33.10
2022-12-01T02:52:51.041Z,30.50
2022-12-01T02:55:47.206Z,31.55
2022-12-01T02:58:34.344Z,34.80
2022-12-01T03:02:00.199Z,33.67
2022-12-01T03:04:53.626Z,33.80
2022-12-01T03:07:49.891Z,40.50
2022-12-01T03:10:51.968Z,27.33
2022-12-01T03:13:47.796Z,34.08
2022-12-01T03:16:58.971Z,37.47
2022-12-01T03:20:04.874Z,37.17
2022-12-01T03:23:00.084Z,37.75
2022-12-01T03:25:51.774Z,40.55
2022-12-01T03:29:04.005Z,36.47
2022-12-01T03:31:56.840Z,36.05
2022-12-01T03:34:51.209Z,39.55
2022-12-01T03:37:44.942Z,36.95
2022-12-01T03:40:37.254Z,36.05
2022-12-01T03:43:31.484Z,27.30
2022-12-01T03:46:27.263Z,37.05
2022-12-01T03:49:17.824Z,39.15
2022-12-01T03:52:16.389Z,37.67
2022-12-01T03:55:25.938Z,34.20
2022-12-01T03:58:34.031Z,39.00
2022-12-01T04:01:22.417Z,40.15
2022-12-01T04:04:13.011Z,36.80
2022-12-01T04:07:00.121Z,35.63
2022-12-01T04:09:47.730Z,34.58
2022-12-01T04:12:35.208Z,32.95
2022-12-01T04:15:22.233Z,36.20
2022-12-01T04:18:09.433Z,34.47
2022-12-01T04:20:56.558Z,37.42
2022-12-01T04:24:01.826Z,30.70
2022-12-01T04:26:49.130Z,35.17
2022-12-01T04:29:36.486Z,34.30
2022-12-01T04:32:23.748Z,29.75
2022-12-01T04:35:12.513Z,33.13
2022-12-01T04:37:59.618Z,36.50
2022-12-01T04:40:46.700Z,31.10
2022-12-01T04:43:33.835Z,36.63
2022-12-01T04:46:22.203Z,33.38
2022-12-01T04:49:09.647Z,32.10
2022-12-01T04:51:56.751Z,33.75
2022-12-01T04:54:43.780Z,31.65
2022-12-01T04:57:30.988Z,33.53
2022-12-01T05:00:18.425Z,29.55
2022-12-01T05:03:05.931Z,38.15
2022-12-01T05:06:02.685Z,33.80
2022-12-01T05:08:50.953Z,32.72
2022-12-01T05:11:38.178Z,35.25
2022-12-01T05:14:25.232Z,38.20
2022-12-01T05:17:12.819Z,29.70
2022-12-01T05:20:19.012Z,30.08
2022-12-01T05:23:07.112Z,31.98
2022-12-01T05:25:56.072Z,34.08
2022-12-01T05:28:43.276Z,35.35
2022-12-01T05:31:31.148Z,32.53
2022-12-01T05:34:18.298Z,28.73
2022-12-01T05:37:05.834Z,36.00
2022-12-01T05:39:53.070Z,34.50
2022-12-01T05:42:40.643Z,33.40
2022-12-01T05:45:27.820Z,32.25
2022-12-01T05:48:15.062Z,34.95
2022-12-01T05:51:14.266Z,34.20
2022-12-01T05:54:01.501Z,33.83
2022-12-01T05:56:48.601Z,29.20
2022-12-01T05:59:35.657Z,35.42
2022-12-01T06:02:22.886Z,38.80
2022-12-01T06:05:10.507Z,33.83
2022-12-01T06:07:57.641Z,33.08
2022-12-01T06:10:46.086Z,31.33
2022-12-01T06:13:33.238Z,31.92
2022-12-01T06:16:20.426Z,30.15
2022-12-01T06:19:07.522Z,32.78
2022-12-01T06:21:54.657Z,29.85
2022-12-01T06:24:41.727Z,32.35
2022-12-01T06:27:28.921Z,28.63
2022-12-01T06:30:16.170Z,30.75
2022-12-01T06:33:03.440Z,32.95
2022-12-01T06:36:01.043Z,31.65
2022-12-01T06:38:48.192Z,28.83
2022-12-01T06:41:35.713Z,29.98
2022-12-01T06:44:22.759Z,34.22
2022-12-01T06:47:10.077Z,35.38
2022-12-01T06:49:57.197Z,33.17
2022-12-01T06:52:44.355Z,36.53
2022-12-01T06:55:31.504Z,36.55
2022-12-01T06:58:18.982Z,32.67
2022-12-01T07:01:12.400Z,31.58
2022-12-01T07:03:59.588Z,30.48
2022-12-01T07:06:46.653Z,30.60
2022-12-01T07:09:34.712Z,32.95
2022-12-01T07:12:21.778Z,23.42
2022-12-01T07:15:09.210Z,24.65
2022-12-01T07:17:56.288Z,31.13
2022-12-01T07:20:43.312Z,27.00
2022-12-01T07:23:31.191Z,27.35
2022-12-01T07:26:18.814Z,25.23
2022-12-01T07:29:05.912Z,27.15
2022-12-01T07:31:53.054Z,28.55
2022-12-01T07:34:40.246Z,31.15
2022-12-01T07:37:27.350Z,23.77
2022-12-01T07:40:14.580Z,28.50
2022-12-01T07:43:01.596Z,25.02
2022-12-01T07:45:49.587Z,27.65
2022-12-01T07:48:38.433Z,30.70
2022-12-01T07:51:26.352Z,29.48
2022-12-01T07:54:17.579Z,31.25
2022-12-01T07:59:53.050Z,36.65
2022-12-01T08:02:40.190Z,33.55
2022-12-01T08:05:27.424Z,40.42
2022-12-01T08:08:14.638Z,36.08
2022-12-01T08:11:05.766Z,35.42
2022-12-01T08:13:53.365Z,34.17
2022-12-01T08:16:40.642Z,31.90
2022-12-01T08:19:29.260Z,32.92
2022-12-01T08:22:16.407Z,31.05
2022-12-01T08:25:03.693Z,33.53
2022-12-01T08:27:50.815Z,31.27
2022-12-01T08:30:37.955Z,33.33
2022-12-01T08:33:26.002Z,33.92
2022-12-01T08:36:13.184Z,33.58
2022-12-01T08:39:00.446Z,31.80
2022-12-01T08:41:47.816Z,33.97
2022-12-01T08:44:35.010Z,32.20
2022-12-01T08:47:22.200Z,31.42
2022-12-01T08:50:10.906Z,28.70
2022-12-01T08:52:58.048Z,31.25
2022-12-01T08:55:45.201Z,31.85
2022-12-01T08:58:33.503Z,33.25
2022-12-01T09:01:21.546Z,30.90
2022-12-01T09:04:09.196Z,30.77
2022-12-01T09:06:57.014Z,28.17
2022-12-01T09:09:45.121Z,29.50
2022-12-01T09:12:32.182Z,30.17
2022-12-01T09:15:19.399Z,31.48
2022-12-01T09:18:07.100Z,31.13
2022-12-01T09:20:54.726Z,34.17
2022-12-01T09:23:41.950Z,30.38
2022-12-01T09:26:31.053Z,25.90
2022-12-01T09:29:18.238Z,29.10
2022-12-01T09:32:05.488Z,30.67
2022-12-01T09:34:52.564Z,27.05
2022-12-01T09:37:40.263Z,30.13
2022-12-01T09:40:34.161Z,30.67
2022-12-01T09:43:25.891Z,30.58
2022-12-01T09:46:20.624Z,28.45
2022-12-01T09:49:16.284Z,26.45
2022-12-01T09:52:03.541Z,27.38
2022-12-01T09:54:52.282Z,30.27
2022-12-01T09:57:40.905Z,24.55
2022-12-01T10:00:35.394Z,21.77
2022-12-01T10:03:33.127Z,27.23
2022-12-01T10:06:37.202Z,23.85
2022-12-01T10:09:48.599Z,27.92
2022-12-01T10:12:36.501Z,26.42
2022-12-01T10:15:56.019Z,25.08
2022-12-01T10:19:00.029Z,24.08
2022-12-01T10:21:47.007Z,25.63
2022-12-01T10:24:44.301Z,24.42
2022-12-01T10:27:48.070Z,21.27
2022-12-01T10:30:40.830Z,23.05
2022-12-01T10:33:40.921Z,17.50
2022-12-01T10:36:30.057Z,22.65
2022-12-01T10:39:29.827Z,22.60
2022-12-01T10:42:36.541Z,21.45
2022-12-01T10:45:30.303Z,21.40
2022-12-01T10:48:22.411Z,23.50
2022-12-01T10:51:17.395Z,26.38
2022-12-01T10:54:11.686Z,24.42
2022-12-01T10:56:59.199Z,24.30
2022-12-01T11:00:06.089Z,23.15
2022-12-01T11:02:53.810Z,21.65
2022-12-01T11:05:42.510Z,22.52
2022-12-01T11:08:46.740Z,24.50
2022-12-01T11:11:40.384Z,22.70
2022-12-01T11:14:47.601Z,20.88
2022-12-01T11:17:43.241Z,22.92
2022-12-01T11:20:35.600Z,24.38
2022-12-01T11:23:26.485Z,20.33
2022-12-01T11:26:36.063Z,19.55
2022-12-01T11:29:38.109Z,23.13
2022-12-01T11:32:31.515Z,25.67
2022-12-01T11:35:21.351Z,24.45
2022-12-01T11:38:29.966Z,22.58
2022-12-01T11:41:28.292Z,20.48
2022-12-01T11:44:49.628Z,19.58
2022-12-01T11:47:28.415Z,20.02
2022-12-01T11:50:27.958Z,25.42
2022-12-01T11:53:47.642Z,20.10
2022-12-01T11:56:34.844Z,20.83
2022-12-01T11:59:24.826Z,21.40
2022-12-01T12:02:28.685Z,21.52
2022-12-01T12:05:31.797Z,21.05
2022-12-01T12:08:52.939Z,18.17
2022-12-01T12:11:47.795Z,21.70
2022-12-01T12:14:43.846Z,20.15
2022-12-01T12:17:50.771Z,21.80
2022-12-01T12:21:00.246Z,22.42
2022-12-01T12:23:50.282Z,22.80
2022-12-01T12:26:49.756Z,18.42
2022-12-01T12:30:04.459Z,20.85
2022-12-01T12:33:08.533Z,25.00
2022-12-01T12:36:29.901Z,25.58
2022-12-01T12:39:38.115Z,24.23
2022-12-01T12:42:47.219Z,24.25
2022-12-01T12:46:01.822Z,19.88
2022-12-01T12:49:21.201Z,21.25
2022-12-01T12:52:24.259Z,22.55
2022-12-01T12:55:22.387Z,16.02
2022-12-01T12:58:27.689Z,21.75
2022-12-01T13:01:23.154Z,22.85
2022-12-01T13:04:21.810Z,22.45
2022-12-01T13:07:30.378Z,23.35
2022-12-01T13:10:38.041Z,22.25
2022-12-01T13:13:39.371Z,22.40
2022-12-01T13:16:50.426Z,24.42
2022-12-01T13:19:40.429Z,24.98
2022-12-01T13:22:34.118Z,17.15
2022-12-01T13:25:38.271Z,18.88
2022-12-01T13:28:29.295Z,21.05
2022-12-01T13:31:18.381Z,29.48
2022-12-01T13:34:25.314Z,21.23
2022-12-01T13:37:12.620Z,25.05
2022-12-01T13:40:24.438Z,25.95
2022-12-01T13:43:21.589Z,22.30
2022-12-01T13:46:40.788Z,27.67
2022-12-01T13:49:44.653Z,21.23
2022-12-01T13:52:32.800Z,25.42
2022-12-01T13:55:19.987Z,28.60
2022-12-01T13:58:07.042Z,25.75
2022-12-01T14:01:19.879Z,24.08
2022-12-01T14:04:16.257Z,25.75
2022-12-01T14:07:21.162Z,24.58
2022-12-01T14:10:20.448Z,26.35
2022-12-01T14:13:18.081Z,26.98
2022-12-01T14:16:05.675Z,21.52
2022-12-01T14:18:55.932Z,26.40
2022-12-01T14:21:49.632Z,26.10
2022-12-01T14:24:41.915Z,26.75
2022-12-01T14:27:38.814Z,27.95
2022-12-01T14:30:42.134Z,27.52
2022-12-01T14:33:51.141Z,26.92
2022-12-01T14:36:42.725Z,25.27
2022-12-01T14:39:34.166Z,25.85
2022-12-01T14:42:49.582Z,28.45
2022-12-01T14:45:48.477Z,25.00
2022-12-01T14:48:43.140Z,27.23
2022-12-01T14:51:32.981Z,27.27
2022-12-01T14:54:33.485Z,22.35
2022-12-01T14:57:25.721Z,24.52
2022-12-01T15:00:17.959Z,26.75
2022-12-01T15:03:14.173Z,23.25
2022-12-01T15:06:01.445Z,22.13
2022-12-01T15:09:32.675Z,22.08
2022-12-01T15:12:26.501Z,25.05
2022-12-01T15:15:23.581Z,25.23
2022-12-01T15:18:23.148Z,22.33
2022-12-01T15:21:26.397Z,23.63
2022-12-01T15:24:25.932Z,24.17
2022-12-01T15:27:26.828Z,26.63
2022-12-01T15:30:15.717Z,12.60
2022-12-01T15:33:03.289Z,6.28
2022-12-01T15:35:51.027Z,6.97
2022-12-01T15:38:40.983Z,9.88
2022-12-01T15:41:30.127Z,8.07
2022-12-01T15:44:37.438Z,9.32
2022-12-01T15:47:36.150Z,12.82
2022-12-01T15:50:46.277Z,11.30
2022-12-01T15:53:37.511Z,6.80
2022-12-01T15:56:38.133Z,24.55
2022-12-01T15:59:33.344Z,29.80
2022-12-01T16:02:20.570Z,26.75
2022-12-01T16:05:13.917Z,22.23
2022-12-01T16:08:26.762Z,22.83
2022-12-01T16:11:17.132Z,24.77
2022-12-01T16:14:19.671Z,28.40
2022-12-01T16:17:08.837Z,22.33
2022-12-01T16:20:26.793Z,32.72
2022-12-01T16:23:22.383Z,24.75
2022-12-01T16:26:09.743Z,28.25
2022-12-01T16:28:57.432Z,26.10
2022-12-01T16:32:12.500Z,26.15
2022-12-01T16:34:53.054Z,18.60
2022-12-01T16:37:40.455Z,27.63
2022-12-01T16:40:27.790Z,30.02
2022-12-01T16:43:16.955Z,25.55
2022-12-01T16:46:10.619Z,31.50
2022-12-01T16:48:57.803Z,25.75
2022-12-01T16:52:11.162Z,28.95
2022-12-01T16:54:52.679Z,24.10
2022-12-01T16:57:39.859Z,27.33
2022-12-01T17:00:27.790Z,25.63
2022-12-01T17:03:16.803Z,31.95
2022-12-01T17:06:04.604Z,23.92
2022-12-01T17:08:51.660Z,24.10
2022-12-01T17:11:38.989Z,25.17
2022-12-01T17:14:26.204Z,40.22
2022-12-01T17:17:13.599Z,27.42
2022-12-01T17:20:00.821Z,30.60
2022-12-01T17:22:47.956Z,27.95
2022-12-01T17:25:35.154Z,27.38
2022-12-01T17:28:22.361Z,25.48
2022-12-01T17:31:09.775Z,23.42
2022-12-01T17:33:57.200Z,24.67
2022-12-01T17:36:44.415Z,26.63
2022-12-01T17:39:31.871Z,27.55
2022-12-01T17:42:19.061Z,29.27
2022-12-01T17:45:07.653Z,28.70
2022-12-01T17:47:55.505Z,27.67
2022-12-01T17:50:44.412Z,26.92
2022-12-01T17:53:32.202Z,31.52
2022-12-01T17:56:20.035Z,27.27
2022-12-01T17:59:07.127Z,28.70
2022-12-01T18:01:54.243Z,32.60
2022-12-01T18:04:41.439Z,30.35
2022-12-01T18:07:30.389Z,28.02
2022-12-01T18:10:18.566Z,28.02
2022-12-01T18:13:05.918Z,33.92
2022-12-01T18:15:53.995Z,30.60
2022-12-01T18:18:42.078Z,35.13
2022-12-01T18:21:29.931Z,33.95
2022-12-01T18:24:18.410Z,27.00
2022-12-01T18:27:05.961Z,33.60
2022-12-01T18:29:53.299Z,44.75
2022-12-01T18:32:41.390Z,36.28
2022-12-01T18:35:31.882Z,32.55
2022-12-01T18:41:07.286Z,37.35
2022-12-01T18:43:55.400Z,34.13
2022-12-01T18:46:42.780Z,29.05
2022-12-01T18:49:30.646Z,32.53
2022-12-01T18:52:18.005Z,35.45
2022-12-01T18:55:05.581Z,31.23
2022-12-01T18:57:52.934Z,30.65
2022-12-01T19:00:40.337Z,30.90
2022-12-01T19:03:32.096Z,38.00
2022-12-01T19:06:20.227Z,31.48
2022-12-01T19:09:11.008Z,36.50
2022-12-01T19:12:00.011Z,39.13
2022-12-01T19:14:47.528Z,35.38
2022-12-01T19:17:35.096Z,35.63
2022-12-01T19:20:23.302Z,30.67
2022-12-01T19:23:11.237Z,37.20
2022-12-01T19:25:59.118Z,34.33
2022-12-01T19:28:47.238Z,39.47
2022-12-01T19:31:35.488Z,40.65
2022-12-01T19:34:24.325Z,35.47
2022-12-01T19:37:12.131Z,35.70
2022-12-01T19:39:59.655Z,37.03
2022-12-01T19:42:46.981Z,39.28
2022-12-01T19:45:38.054Z,40.95
2022-12-01T19:48:25.855Z,38.45
2022-12-01T19:51:24.710Z,42.30
2022-12-01T19:54:17.723Z,41.15
2022-12-01T19:57:05.029Z,42.58
2022-12-01T19:59:52.383Z,32.38
2022-12-01T20:02:39.696Z,31.60
2022-12-01T20:05:26.955Z,40.10
2022-12-01T20:08:14.425Z,35.92
2022-12-01T20:11:03.693Z,41.42
2022-12-01T20:13:52.032Z,78.38
2022-12-01T20:16:40.433Z,43.05
2022-12-01T20:19:27.669Z,44.55
2022-12-01T20:22:14.888Z,35.63
2022-12-01T20:25:02.164Z,38.55
2022-12-01T20:27:49.253Z,41.97
2022-12-01T20:30:40.140Z,36.03
2022-12-01T20:33:28.197Z,35.45
2022-12-01T20:36:15.609Z,36.83
2022-12-01T20:39:04.068Z,32.88
2022-12-01T20:41:51.314Z,41.25
2022-12-01T20:44:40.015Z,43.40
2022-12-01T20:47:27.289Z,35.22
2022-12-01T20:50:14.456Z,32.55
2022-12-01T20:53:01.966Z,35.88
2022-12-01T20:55:49.127Z,34.88
2022-12-01T20:58:38.191Z,36.10
2022-12-01T21:01:26.158Z,35.60
2022-12-01T21:04:13.319Z,32.42
2022-12-01T21:07:00.479Z,36.08
2022-12-01T21:09:47.667Z,34.03
2022-12-01T21:12:55.016Z,28.02
2022-12-01T21:16:00.105Z,32.90
2022-12-01T21:19:01.660Z,32.05
2022-12-01T21:21:48.880Z,35.70
2022-12-01T21:24:42.141Z,29.48
2022-12-01T21:27:30.866Z,38.50
2022-12-01T21:30:22.090Z,34.67
2022-12-01T21:36:31.266Z,31.17
2022-12-01T21:39:21.335Z,31.85
2022-12-01T21:42:21.076Z,32.38
2022-12-01T21:45:29.131Z,31.98
2022-12-01T21:48:19.574Z,34.80
2022-12-01T21:51:20.460Z,29.58
2022-12-01T21:54:13.578Z,33.75
2022-12-01T21:57:01.122Z,34.03
2022-12-01T21:59:48.718Z,30.23
2022-12-01T22:03:08.251Z,35.88
2022-12-01T22:06:29.680Z,37.28
2022-12-01T22:09:24.299Z,38.20
2022-12-01T22:12:28.096Z,31.95
2022-12-01T22:15:40.662Z,38.85
2022-12-01T22:18:39.117Z,29.52
2022-12-01T22:21:30.326Z,31.15
2022-12-01T22:27:27.156Z,27.38
2022-12-01T22:30:20.239Z,30.55
2022-12-01T22:33:16.594Z,32.83
2022-12-01T22:36:18.985Z,32.25
2022-12-01T22:39:22.539Z,31.30
2022-12-01T22:42:17.066Z,33.20
2022-12-01T22:45:18.671Z,30.35
2022-12-01T22:48:14.124Z,28.60
2022-12-01T22:51:16.300Z,30.15
2022-12-01T22:54:09.435Z,31.05
2022-12-01T22:57:14.537Z,29.67
2022-12-01T23:00:14.872Z,32.60
2022-12-01T23:03:01.943Z,27.95
2022-12-01T23:05:56.747Z,30.95
2022-12-01T23:08:44.556Z,32.30
2022-12-01T23:11:31.865Z,27.05
2022-12-01T23:14:23.413Z,30.88
2022-12-01T23:17:31.051Z,38.42
2022-12-01T23:20:24.160Z,28.85
2022-12-01T23:23:15.568Z,29.15
2022-12-01T23:26:04.322Z,29.77
2022-12-01T23:28:51.601Z,31.83
2022-12-01T23:31:38.774Z,28.23
2022-12-01T23:34:25.899Z,31.70
2022-12-01T23:37:32.107Z,32.28
2022-12-01T23:40:23.113Z,26.73
2022-12-01T23:43:17.527Z,30.60
2022-12-01T23:46:17.889Z,30.27
2022-12-01T23:49:09.973Z,37.03
2022-12-01T23:52:01.076Z,33.75
2022-12-01T23:57:37.116Z,34.88
